Time;durP1;ratioP1;P1;durP2;ratioP2;P2;SDS_P1;SDS_P2;PMS_P1;PMS_P2;Temp;Humidity;BMP_temperature;BMP_pressure;BME280_temperature;BME280_humidity;BME280_pressure;Samples;Min_cycle;Max_cycle;Signal;HPM_P1;HPM_P2
2023/10/04 00:00:15;;;;;;;9.53;2.37;;;11.70;99.90;;;;;;4969472;28;20560;-67
2023/10/04 00:02:45;;;;;;;10.00;2.53;;;11.60;99.90;;;;;;4969656;28;20522;-67
2023/10/04 00:05:16;;;;;;;9.90;2.60;;;11.50;99.90;;;;;;4970020;28;20469;-68
2023/10/04 00:07:45;;;;;;;9.10;2.50;;;11.50;99.90;;;;;;4970093;28;20453;-67
2023/10/04 00:10:14;;;;;;;8.70;2.20;;;11.40;99.90;;;;;;4969707;28;20938;-66
2023/10/04 00:12:43;;;;;;;8.77;2.33;;;11.30;99.90;;;;;;4969756;28;21041;-66
2023/10/04 00:15:12;;;;;;;11.77;2.83;;;11.30;99.90;;;;;;4969887;28;21039;-67
2023/10/04 00:17:42;;;;;;;9.50;2.20;;;11.20;99.90;;;;;;4969920;28;20580;-66
2023/10/04 00:20:13;;;;;;;9.33;3.03;;;11.30;99.90;;;;;;4969911;28;20519;-68
2023/10/04 00:22:43;;;;;;;8.10;2.60;;;11.30;99.90;;;;;;4969516;28;20524;-65
2023/10/04 00:25:12;;;;;;;9.03;2.40;;;11.40;99.90;;;;;;4970179;28;20550;-66
2023/10/04 00:27:41;;;;;;;8.07;2.50;;;11.40;99.90;;;;;;4969732;28;20539;-68
2023/10/04 00:30:15;;;;;;;8.03;2.57;;;11.50;99.90;;;;;;4969535;28;20468;-67
2023/10/04 00:32:44;;;;;;;9.30;2.97;;;11.50;99.90;;;;;;4969609;28;20481;-67
2023/10/04 00:35:12;;;;;;;9.37;2.50;;;11.50;99.90;;;;;;4969541;28;20449;-67
2023/10/04 00:37:44;;;;;;;10.97;3.47;;;11.40;99.90;;;;;;4970176;28;20523;-66
2023/10/04 00:40:18;;;;;;;9.60;2.23;;;11.50;99.90;;;;;;4972903;28;20479;-66
2023/10/04 00:42:47;;;;;;;8.80;2.27;;;11.50;99.90;;;;;;4972916;28;20492;-66
2023/10/04 00:45:15;;;;;;;9.07;2.47;;;11.60;99.90;;;;;;4972860;28;20454;-67
2023/10/04 00:47:47;;;;;;;8.97;2.20;;;11.50;99.90;;;;;;4973192;28;21066;-66
2023/10/04 00:50:17;;;;;;;8.83;2.17;;;11.60;99.90;;;;;;4972702;28;20469;-66
2023/10/04 00:52:49;;;;;;;8.20;2.40;;;11.60;99.90;;;;;;4972469;28;20488;-67
2023/10/04 00:55:20;;;;;;;8.97;2.03;;;11.60;99.90;;;;;;4973135;28;20513;-66
2023/10/04 00:57:51;;;;;;;7.10;1.67;;;11.60;99.90;;;;;;4972900;28;20494;-68
2023/10/04 01:00:19;;;;;;;9.47;2.10;;;11.60;99.90;;;;;;4972202;28;20517;-66
2023/10/04 01:02:48;;;;;;;8.60;2.23;;;11.50;99.90;;;;;;4972340;28;20471;-66
2023/10/04 01:05:20;;;;;;;9.00;2.40;;;11.50;99.90;;;;;;4972181;28;20490;-66
2023/10/04 01:07:49;;;;;;;8.60;2.50;;;11.60;99.90;;;;;;4972390;28;20458;-67
2023/10/04 01:10:24;;;;;;;8.13;2.03;;;11.60;99.90;;;;;;4972216;28;20547;-67
2023/10/04 01:12:52;;;;;;;8.30;1.63;;;11.50;99.90;;;;;;4971907;28;20509;-66
2023/10/04 01:15:32;;;;;;;9.27;2.53;;;11.50;99.90;;;;;;4972217;28;20833;-68
2023/10/04 01:18:02;;;;;;;10.23;2.50;;;11.60;99.90;;;;;;4972199;28;20889;-68
2023/10/04 01:20:31;;;;;;;9.77;2.77;;;11.60;99.90;;;;;;4972047;28;20467;-67
2023/10/04 01:23:01;;;;;;;10.17;2.83;;;11.60;99.90;;;;;;4971999;28;20481;-67
2023/10/04 01:25:31;;;;;;;9.70;2.13;;;11.40;99.90;;;;;;4972348;28;20454;-66
2023/10/04 01:28:00;;;;;;;9.60;2.57;;;11.40;99.90;;;;;;4972315;28;20541;-65
2023/10/04 01:30:29;;;;;;;7.73;2.30;;;11.30;99.90;;;;;;4972077;28;20543;-66
2023/10/04 01:33:00;;;;;;;7.67;1.77;;;11.30;99.90;;;;;;4972266;28;20531;-66
2023/10/04 01:35:28;;;;;;;8.37;2.40;;;11.30;99.90;;;;;;4971797;28;20454;-68
2023/10/04 01:37:56;;;;;;;10.53;2.20;;;11.30;99.90;;;;;;4971833;28;20450;-66
2023/10/04 01:40:28;;;;;;;8.17;1.93;;;11.20;99.90;;;;;;4971864;28;20449;-67
2023/10/04 01:42:57;;;;;;;9.87;2.10;;;11.20;99.90;;;;;;4972124;28;20521;-66
2023/10/04 01:45:25;;;;;;;9.93;2.43;;;11.20;99.90;;;;;;4971970;28;20532;-65
2023/10/04 01:47:53;;;;;;;8.47;2.00;;;11.20;99.90;;;;;;4971859;28;20459;-67
2023/10/04 01:50:21;;;;;;;7.57;2.03;;;11.10;99.90;;;;;;4971161;28;20489;-68
2023/10/04 01:52:50;;;;;;;9.33;2.27;;;11.00;99.90;;;;;;4971825;28;20481;-67
2023/10/04 01:55:18;;;;;;;9.20;2.40;;;11.10;99.90;;;;;;4971549;28;20456;-68
2023/10/04 01:57:48;;;;;;;10.80;2.47;;;11.10;99.90;;;;;;4971987;28;20535;-67
2023/10/04 02:00:18;;;;;;;11.03;2.93;;;11.10;99.90;;;;;;4971382;28;20491;-67
2023/10/04 02:02:47;;;;;;;8.20;2.07;;;11.20;99.90;;;;;;4970332;28;20837;-67
2023/10/04 02:05:24;;;;;;;7.90;1.80;;;11.20;99.90;;;;;;4971477;28;20462;-66
2023/10/04 02:07:54;;;;;;;9.00;2.60;;;11.20;99.90;;;;;;4971945;28;20495;-66
2023/10/04 02:10:22;;;;;;;8.03;2.00;;;11.30;99.90;;;;;;4971187;28;20454;-67
2023/10/04 02:12:53;;;;;;;8.73;2.20;;;11.30;99.90;;;;;;4970946;28;21183;-67
2023/10/04 02:15:21;;;;;;;8.90;2.10;;;11.30;99.90;;;;;;4971415;28;20467;-67
2023/10/04 02:17:53;;;;;;;9.43;2.20;;;11.30;99.90;;;;;;4971506;28;20460;-67
2023/10/04 02:20:23;;;;;;;7.77;1.90;;;11.30;99.90;;;;;;4971166;28;20488;-67
2023/10/04 02:22:51;;;;;;;8.00;1.90;;;11.30;99.90;;;;;;4970968;28;20581;-66
2023/10/04 02:25:19;;;;;;;9.60;2.20;;;11.30;99.90;;;;;;4971397;28;20454;-66
2023/10/04 02:27:49;;;;;;;8.70;2.67;;;11.40;99.90;;;;;;4971183;28;20971;-66
2023/10/04 02:30:21;;;;;;;8.23;2.20;;;11.40;99.90;;;;;;4971240;28;20498;-67
2023/10/04 02:32:51;;;;;;;10.00;2.00;;;11.40;99.90;;;;;;4971188;28;20549;-67
2023/10/04 02:35:26;;;;;;;8.43;2.20;;;11.40;99.90;;;;;;4971161;28;20460;-67
2023/10/04 02:37:59;;;;;;;8.37;1.90;;;11.30;99.90;;;;;;4971143;28;20451;-67
2023/10/04 02:40:32;;;;;;;9.23;2.13;;;11.20;99.90;;;;;;4970949;28;20576;-67
2023/10/04 02:43:02;;;;;;;8.57;2.43;;;11.10;99.90;;;;;;4970740;28;20473;-66
2023/10/04 02:45:36;;;;;;;11.37;2.43;;;11.00;99.90;;;;;;4971203;28;20451;-66
2023/10/04 02:48:05;;;;;;;8.20;2.20;;;11.00;99.90;;;;;;4970656;28;20457;-67
2023/10/04 02:50:33;;;;;;;7.70;2.17;;;10.80;99.90;;;;;;4970623;28;20456;-66
2023/10/04 02:53:02;;;;;;;9.43;2.10;;;10.70;99.90;;;;;;4970721;28;20533;-66
2023/10/04 02:55:31;;;;;;;8.73;2.27;;;10.70;99.90;;;;;;4970585;28;20894;-66
2023/10/04 02:58:00;;;;;;;7.80;2.17;;;10.60;99.90;;;;;;4970498;28;20455;-67
2023/10/04 03:00:28;;;;;;;8.47;2.33;;;10.40;99.90;;;;;;4969823;28;20490;-68
2023/10/04 03:02:58;;;;;;;8.67;2.37;;;10.30;99.90;;;;;;4970143;28;20499;-66
2023/10/04 03:05:29;;;;;;;13.40;3.70;;;10.20;99.90;;;;;;4970591;28;20458;-67
2023/10/04 03:07:57;;;;;;;8.50;2.50;;;10.10;99.90;;;;;;4970537;28;20448;-66
2023/10/04 03:10:33;;;;;;;9.07;2.93;;;10.20;99.90;;;;;;4970385;28;20442;-65
2023/10/04 03:13:02;;;;;;;8.60;2.63;;;10.10;99.90;;;;;;4970538;28;20457;-66
2023/10/04 03:15:30;;;;;;;8.40;2.10;;;10.10;99.90;;;;;;4970213;28;20444;-66
2023/10/04 03:18:02;;;;;;;8.90;2.50;;;10.10;99.90;;;;;;4970201;28;21118;-67
2023/10/04 03:20:31;;;;;;;12.30;2.90;;;10.00;99.90;;;;;;4970107;28;20858;-65
2023/10/04 03:23:04;;;;;;;9.87;2.90;;;10.00;99.90;;;;;;4970182;28;20476;-66
2023/10/04 03:25:34;;;;;;;11.47;3.50;;;9.80;99.90;;;;;;4970358;28;20707;-66
2023/10/04 03:28:02;;;;;;;9.60;2.60;;;9.90;99.90;;;;;;4969961;28;20539;-66
2023/10/04 03:30:31;;;;;;;9.80;3.10;;;9.70;99.90;;;;;;4970087;28;20443;-68
2023/10/04 03:33:01;;;;;;;9.60;2.80;;;9.70;99.90;;;;;;4970304;28;20475;-67
2023/10/04 03:35:29;;;;;;;8.20;2.20;;;9.60;99.90;;;;;;4970295;28;20439;-67
2023/10/04 03:38:01;;;;;;;11.90;2.57;;;9.60;99.90;;;;;;4969920;28;20459;-67
2023/10/04 03:40:34;;;;;;;8.27;2.30;;;9.50;99.90;;;;;;4969724;28;20578;-67
2023/10/04 03:43:05;;;;;;;9.60;2.67;;;9.60;99.90;;;;;;4970223;28;20506;-67
2023/10/04 03:45:33;;;;;;;8.03;2.40;;;9.60;99.90;;;;;;4970202;28;20448;-67
2023/10/04 03:48:05;;;;;;;9.37;2.90;;;9.50;99.90;;;;;;4970259;28;20470;-67
2023/10/04 03:50:34;;;;;;;8.70;2.73;;;9.50;99.90;;;;;;4969646;28;20448;-67
2023/10/04 03:53:02;;;;;;;8.07;2.20;;;9.40;99.90;;;;;;4969790;28;20865;-67
2023/10/04 03:55:31;;;;;;;8.00;2.43;;;9.40;99.90;;;;;;4970186;28;20476;-67
2023/10/04 03:57:59;;;;;;;10.57;3.33;;;9.50;99.90;;;;;;4969956;28;20455;-67
2023/10/04 04:00:30;;;;;;;10.13;3.07;;;9.50;99.90;;;;;;4969648;28;20550;-65
2023/10/04 04:02:59;;;;;;;9.30;3.00;;;9.60;99.90;;;;;;4970037;28;20978;-66
2023/10/04 04:05:30;;;;;;;9.77;2.67;;;9.70;99.90;;;;;;4969660;28;20992;-67
2023/10/04 04:07:58;;;;;;;9.20;2.80;;;9.70;99.90;;;;;;4969753;28;20542;-66
2023/10/04 04:10:26;;;;;;;10.03;2.67;;;9.70;99.90;;;;;;4969838;28;20546;-66
2023/10/04 04:12:55;;;;;;;9.33;2.93;;;9.70;99.90;;;;;;4970507;28;20861;-66
2023/10/04 04:15:23;;;;;;;9.57;2.53;;;9.70;99.90;;;;;;4973777;28;20451;-66
2023/10/04 04:17:53;;;;;;;9.07;3.10;;;9.70;99.90;;;;;;4974126;28;20459;-65
2023/10/04 04:20:23;;;;;;;7.90;2.43;;;9.60;99.90;;;;;;4973281;28;20508;-66
2023/10/04 04:22:53;;;;;;;9.33;3.27;;;9.50;99.90;;;;;;4973394;28;20522;-66
2023/10/04 04:25:23;;;;;;;9.13;3.03;;;9.50;99.90;;;;;;4973666;28;20455;-66
2023/10/04 04:27:52;;;;;;;13.93;3.80;;;9.40;99.90;;;;;;4973554;28;20455;-66
2023/10/04 04:30:23;;;;;;;8.93;3.13;;;9.50;99.90;;;;;;4972971;28;21181;-67
2023/10/04 04:32:55;;;;;;;10.07;2.83;;;9.50;99.90;;;;;;4973119;28;21276;-66
2023/10/04 04:35:35;;;;;;;9.27;3.30;;;9.40;99.90;;;;;;4973503;28;20458;-65
2023/10/04 04:38:13;;;;;;;11.30;2.93;;;9.30;99.90;;;;;;4973380;28;20451;-66
2023/10/04 04:40:44;;;;;;;10.17;3.00;;;9.40;99.90;;;;;;4972708;28;20518;-66
2023/10/04 04:45:58;;;;;;;8.57;3.00;;;9.40;99.90;;;;;;4972777;28;20516;-66
2023/10/04 04:48:27;;;;;;;10.77;2.63;;;9.40;99.90;;;;;;4971535;28;20501;-68
2023/10/04 04:50:56;;;;;;;9.30;2.83;;;9.40;99.90;;;;;;4972882;28;20442;-66
2023/10/04 04:53:27;;;;;;;9.70;2.83;;;9.20;99.90;;;;;;4972711;28;20455;-67
2023/10/04 04:55:56;;;;;;;9.67;2.97;;;9.30;99.90;;;;;;4972849;28;20875;-66
2023/10/04 04:58:28;;;;;;;9.40;2.63;;;9.30;99.90;;;;;;4972474;28;20465;-67
2023/10/04 05:01:00;;;;;;;9.83;2.93;;;9.30;99.90;;;;;;4972479;28;20490;-65
2023/10/04 05:03:28;;;;;;;11.60;3.50;;;9.20;99.90;;;;;;4971229;28;22333;-66
2023/10/04 05:05:57;;;;;;;12.77;3.60;;;9.10;99.90;;;;;;4972074;28;20537;-66
2023/10/04 05:08:26;;;;;;;9.50;3.00;;;9.00;99.90;;;;;;4967200;28;21085;-66
2023/10/04 05:10:55;;;;;;;8.47;2.67;;;9.10;99.90;;;;;;4971447;28;20986;-67
2023/10/04 05:13:24;;;;;;;10.07;3.93;;;8.90;99.90;;;;;;4965957;28;20447;-66
2023/10/04 05:15:53;;;;;;;9.00;3.10;;;8.80;99.90;;;;;;4971180;28;21005;-65
2023/10/04 05:18:22;;;;;;;11.80;4.60;;;8.70;99.90;;;;;;4970107;28;20904;-66
2023/10/04 05:20:53;;;;;;;11.30;3.80;;;8.70;99.90;;;;;;4969140;28;21098;-67
2023/10/04 05:23:23;;;;;;;10.73;3.73;;;8.70;99.90;;;;;;4969860;28;20450;-65
2023/10/04 05:25:53;;;;;;;11.57;3.33;;;8.90;99.90;;;;;;4968173;28;20476;-66
2023/10/04 05:28:23;;;;;;;9.63;3.13;;;8.90;99.90;;;;;;4970120;28;20447;-68
2023/10/04 05:30:51;;;;;;;12.53;3.90;;;8.90;99.90;;;;;;4970193;28;20457;-66
2023/10/04 05:33:22;;;;;;;9.00;3.90;;;8.90;99.90;;;;;;4971897;28;20896;-67
2023/10/04 05:35:53;;;;;;;10.50;3.63;;;8.90;99.90;;;;;;4972130;28;20570;-66
2023/10/04 05:38:22;;;;;;;12.10;3.40;;;9.00;99.90;;;;;;4971849;28;20454;-66
2023/10/04 05:40:52;;;;;;;10.60;3.10;;;9.00;99.90;;;;;;4971636;28;20614;-68
2023/10/04 05:43:20;;;;;;;10.57;3.60;;;8.90;99.90;;;;;;4971863;28;20506;-67
2023/10/04 05:45:48;;;;;;;10.10;3.50;;;8.90;99.90;;;;;;4971400;28;21029;-67
2023/10/04 05:48:19;;;;;;;10.73;3.30;;;8.90;99.90;;;;;;4971130;28;20929;-66
2023/10/04 05:50:49;;;;;;;11.80;4.27;;;8.90;99.90;;;;;;4970813;28;20478;-66
2023/10/04 05:53:21;;;;;;;11.40;3.60;;;8.80;99.90;;;;;;4971370;28;20485;-66
2023/10/04 05:55:49;;;;;;;13.67;3.70;;;8.90;99.90;;;;;;4971412;28;20449;-66
2023/10/04 05:58:21;;;;;;;10.53;3.27;;;8.90;99.90;;;;;;4971124;28;20443;-65
2023/10/04 06:00:52;;;;;;;10.50;3.70;;;8.80;99.90;;;;;;4971290;28;20486;-67
2023/10/04 06:03:22;;;;;;;12.93;3.50;;;8.90;99.90;;;;;;4971717;28;20553;-67
2023/10/04 06:05:51;;;;;;;11.57;5.20;;;8.90;99.90;;;;;;4971604;28;20455;-66
2023/10/04 06:08:22;;;;;;;12.47;3.77;;;8.90;99.90;;;;;;4971379;28;20462;-66
2023/10/04 06:10:51;;;;;;;13.73;4.33;;;9.00;99.90;;;;;;4971087;28;20451;-67
2023/10/04 06:13:22;;;;;;;11.10;3.97;;;8.90;99.90;;;;;;4971300;28;20516;-65
2023/10/04 06:15:53;;;;;;;11.13;3.87;;;9.00;99.90;;;;;;4971398;28;20454;-65
2023/10/04 06:18:28;;;;;;;10.47;3.67;;;9.20;99.90;;;;;;4971392;28;20443;-67
2023/10/04 06:20:56;;;;;;;12.03;3.87;;;9.20;99.90;;;;;;4970565;28;20868;-66
2023/10/04 06:23:25;;;;;;;9.30;4.20;;;9.30;99.90;;;;;;4971132;28;20530;-67
2023/10/04 06:25:53;;;;;;;11.40;3.83;;;9.30;99.90;;;;;;4971152;28;20467;-65
2023/10/04 06:28:23;;;;;;;12.73;4.67;;;9.30;99.90;;;;;;4970679;28;20466;-65
2023/10/04 06:30:52;;;;;;;10.13;3.60;;;9.40;99.90;;;;;;4970714;28;20857;-67
2023/10/04 06:33:20;;;;;;;10.63;3.30;;;9.60;99.90;;;;;;4970823;28;20558;-66
2023/10/04 06:35:48;;;;;;;10.77;3.30;;;9.70;99.90;;;;;;4970738;28;20516;-67
2023/10/04 06:38:18;;;;;;;10.13;3.67;;;9.70;99.90;;;;;;4971037;28;20462;-65
2023/10/04 06:40:46;;;;;;;10.83;4.67;;;9.80;99.90;;;;;;4970364;28;20898;-65
2023/10/04 06:43:15;;;;;;;10.97;4.07;;;9.90;99.90;;;;;;4973834;28;20465;-67
2023/10/04 06:45:44;;;;;;;10.03;3.57;;;10.00;99.90;;;;;;4972179;28;20459;-68
2023/10/04 06:48:12;;;;;;;10.00;4.40;;;10.10;99.90;;;;;;4983172;28;20566;-67
2023/10/04 06:50:40;;;;;;;11.17;4.80;;;10.40;99.90;;;;;;4977092;28;20827;-67
2023/10/04 06:53:10;;;;;;;11.63;4.27;;;10.60;99.90;;;;;;4977058;28;20499;-66
2023/10/04 06:55:39;;;;;;;10.13;4.37;;;10.70;99.90;;;;;;4979574;28;20451;-67
2023/10/04 06:58:10;;;;;;;14.20;4.80;;;10.80;99.90;;;;;;4980561;28;20467;-66
2023/10/04 07:00:40;;;;;;;14.37;5.00;;;10.90;99.90;;;;;;4981113;28;20449;-67
2023/10/04 07:03:11;;;;;;;12.00;5.73;;;11.10;99.90;;;;;;4977099;28;20474;-65
2023/10/04 07:05:40;;;;;;;13.33;4.30;;;11.20;99.90;;;;;;4979510;28;20442;-66
2023/10/04 07:08:13;;;;;;;12.30;4.50;;;11.40;99.90;;;;;;4980438;28;20438;-65
2023/10/04 07:10:42;;;;;;;17.70;6.67;;;11.40;99.90;;;;;;4975306;28;20513;-65
2023/10/04 07:13:10;;;;;;;13.50;4.43;;;11.50;99.90;;;;;;4976828;28;20466;-66
2023/10/04 07:15:39;;;;;;;11.60;4.70;;;11.60;99.90;;;;;;4976196;28;20458;-66
2023/10/04 07:18:11;;;;;;;11.37;4.90;;;11.60;99.90;;;;;;4973796;28;20452;-66
2023/10/04 07:20:40;;;;;;;14.13;6.43;;;11.80;99.90;;;;;;4973891;28;20445;-66
2023/10/04 07:23:10;;;;;;;9.83;4.10;;;11.80;99.90;;;;;;4972493;28;20498;-65
2023/10/04 07:25:43;;;;;;;9.50;3.50;;;11.90;99.90;;;;;;4970837;28;20885;-66
2023/10/04 07:28:11;;;;;;;13.07;4.77;;;12.00;99.90;;;;;;4969301;28;20490;-66
2023/10/04 07:30:41;;;;;;;10.97;4.17;;;12.00;99.90;;;;;;4970289;28;21140;-65
2023/10/04 07:33:11;;;;;;;11.03;3.90;;;12.10;99.90;;;;;;4974700;28;20451;-66
2023/10/04 07:35:39;;;;;;;10.27;4.70;;;12.10;99.90;;;;;;4964345;28;20448;-67
2023/10/04 07:38:07;;;;;;;11.13;3.60;;;12.20;99.90;;;;;;4977186;28;21004;-66
2023/10/04 07:40:37;;;;;;;10.37;3.90;;;12.30;99.90;;;;;;4978978;28;20453;-65
2023/10/04 07:43:07;;;;;;;9.40;4.03;;;12.40;99.90;;;;;;4980198;28;20858;-64
2023/10/04 07:45:35;;;;;;;11.57;4.40;;;12.50;99.90;;;;;;4974370;28;20593;-64
2023/10/04 07:48:03;;;;;;;11.30;5.73;;;12.60;99.90;;;;;;4971385;28;20454;-66
2023/10/04 07:50:33;;;;;;;9.73;3.93;;;12.70;99.90;;;;;;4973270;28;20817;-64
2023/10/04 07:53:04;;;;;;;10.47;3.70;;;12.80;99.90;;;;;;4982708;28;20466;-66
2023/10/04 07:55:34;;;;;;;11.37;4.03;;;13.00;99.90;;;;;;4976546;28;20459;-67
2023/10/04 07:58:03;;;;;;;12.10;3.67;;;13.20;99.90;;;;;;4973053;28;20517;-67
2023/10/04 08:00:33;;;;;;;10.68;3.70;;;13.30;99.90;;;;;;4972850;28;20464;-65
2023/10/04 08:03:03;;;;;;;13.90;4.32;;;13.40;99.90;;;;;;4971863;28;20544;-65
2023/10/04 08:05:33;;;;;;;10.13;4.13;;;13.50;99.90;;;;;;4973421;28;20699;-66
2023/10/04 08:08:02;;;;;;;12.63;3.83;;;13.60;99.90;;;;;;4972964;28;20509;-66
2023/10/04 08:10:34;;;;;;;10.20;3.77;;;13.70;99.90;;;;;;4972510;28;21030;-66
2023/10/04 08:13:04;;;;;;;10.00;2.20;;;13.90;99.90;;;;;;4973448;28;20470;-67
2023/10/04 08:15:35;;;;;;;8.23;1.57;;;14.20;99.90;;;;;;4973518;28;20534;-66
2023/10/04 08:18:04;;;;;;;8.53;1.53;;;14.50;99.90;;;;;;4973319;28;20448;-66
2023/10/04 08:20:36;;;;;;;12.07;1.60;;;14.70;99.90;;;;;;4973103;28;20453;-64
2023/10/04 08:23:04;;;;;;;7.43;1.40;;;14.80;99.90;;;;;;4973153;28;21054;-65
2023/10/04 08:25:34;;;;;;;9.87;1.60;;;14.90;99.90;;;;;;4973418;28;20478;-65
2023/10/04 08:28:03;;;;;;;8.90;1.70;;;15.00;99.90;;;;;;4973388;28;20453;-66
2023/10/04 08:30:31;;;;;;;8.43;1.90;;;15.10;99.90;;;;;;4972848;28;20448;-65
2023/10/04 08:33:00;;;;;;;11.40;1.43;;;15.20;99.90;;;;;;4972897;28;20523;-64
2023/10/04 08:35:29;;;;;;;9.50;1.90;;;15.40;99.90;;;;;;4972959;28;20453;-66
2023/10/04 08:38:03;;;;;;;6.67;1.50;;;15.50;99.90;;;;;;4972935;28;20454;-66
2023/10/04 08:40:35;;;;;;;7.80;1.70;;;15.60;99.90;;;;;;4972304;28;20470;-66
2023/10/04 08:43:04;;;;;;;9.13;1.37;;;15.60;99.90;;;;;;4972982;28;20525;-65
2023/10/04 08:45:33;;;;;;;13.73;3.07;;;15.80;99.90;;;;;;4972954;28;20450;-66
2023/10/04 08:48:02;;;;;;;8.67;1.70;;;15.90;99.90;;;;;;4972666;28;20501;-66
2023/10/04 08:50:36;;;;;;;8.30;1.50;;;16.00;99.90;;;;;;4972292;28;20451;-66
2023/10/04 08:53:14;;;;;;;8.73;1.37;;;16.20;99.90;;;;;;4972282;28;20562;-64
2023/10/04 08:55:46;;;;;;;8.80;1.50;;;16.50;99.90;;;;;;4972760;28;20812;-68
2023/10/04 08:58:16;;;;;;;7.60;1.50;;;16.70;99.90;;;;;;4972229;28;20542;-67
2023/10/04 09:00:45;;;;;;;13.30;1.90;;;16.80;99.90;;;;;;4971997;28;20467;-67
2023/10/04 09:03:14;;;;;;;9.50;1.20;;;16.90;99.90;;;;;;4972148;28;20586;-66
2023/10/04 09:05:46;;;;;;;8.10;1.50;;;16.90;99.90;;;;;;4972293;28;20888;-67
2023/10/04 09:08:17;;;;;;;9.43;1.43;;;16.90;99.90;;;;;;4972384;28;20470;-66
2023/10/04 09:10:45;;;;;;;6.90;1.23;;;16.90;99.90;;;;;;4971889;28;20459;-66
2023/10/04 09:13:13;;;;;;;9.13;1.30;;;16.90;99.90;;;;;;4972186;28;20525;-66
2023/10/04 09:15:42;;;;;;;7.07;1.03;;;16.90;99.90;;;;;;4972241;28;20463;-67
2023/10/04 09:18:11;;;;;;;8.80;1.57;;;16.90;99.90;;;;;;4972262;28;20553;-69
2023/10/04 09:20:39;;;;;;;7.93;1.20;;;16.90;99.90;;;;;;4972010;28;20868;-66
2023/10/04 09:23:20;;;;;;;6.83;1.57;;;17.20;99.90;;;;;;4972132;28;20491;-65
2023/10/04 09:25:47;;;;;;;9.20;1.43;;;17.30;99.90;;;;;;4972432;28;20449;-65
2023/10/04 09:28:16;;;;;;;7.03;1.37;;;17.40;99.90;;;;;;4971843;28;20505;-64
2023/10/04 09:30:44;;;;;;;8.30;1.20;;;17.50;99.90;;;;;;4971523;28;20440;-63
2023/10/04 09:33:28;;;;;;;7.77;1.20;;;17.60;99.90;;;;;;4971554;28;20518;-62
2023/10/04 09:35:57;;;;;;;7.80;1.30;;;17.90;99.90;;;;;;4971862;28;20582;-65
2023/10/04 09:38:29;;;;;;;11.03;1.80;;;18.10;99.90;;;;;;4971597;28;20534;-64
2023/10/04 09:40:59;;;;;;;9.77;1.57;;;18.10;99.90;;;;;;4971173;28;21208;-65
2023/10/04 09:43:35;;;;;;;7.20;1.30;;;17.70;99.90;;;;;;4971521;28;20926;-66
2023/10/04 09:46:04;;;;;;;11.50;1.70;;;17.70;99.90;;;;;;4971798;28;20460;-65
2023/10/04 09:48:33;;;;;;;7.37;1.80;;;17.70;99.90;;;;;;4971733;28;20452;-63
2023/10/04 09:51:05;;;;;;;9.07;1.50;;;17.90;99.90;;;;;;4971095;28;20452;-65
2023/10/04 09:53:38;;;;;;;7.00;1.20;;;18.00;99.90;;;;;;4971432;28;20451;-65
2023/10/04 09:56:07;;;;;;;7.67;1.10;;;18.30;99.90;;;;;;4971853;28;20502;-64
2023/10/04 09:58:40;;;;;;;10.13;2.03;;;18.50;99.90;;;;;;4971408;28;20499;-64
2023/10/04 10:01:11;;;;;;;10.80;1.77;;;18.70;99.90;;;;;;4970851;28;20456;-64
2023/10/04 10:03:47;;;;;;;8.67;1.57;;;18.70;99.90;;;;;;4971590;28;20483;-65
2023/10/04 10:06:20;;;;;;;7.07;1.30;;;18.90;99.90;;;;;;4971820;28;20860;-65
2023/10/04 10:08:53;;;;;;;8.83;1.57;;;19.20;99.90;;;;;;4971588;28;20447;-67
2023/10/04 10:11:21;;;;;;;10.53;1.63;;;19.50;99.90;;;;;;4970176;28;20526;-65
2023/10/04 10:13:50;;;;;;;7.17;1.50;;;19.80;99.90;;;;;;4971662;28;20476;-66
2023/10/04 10:16:19;;;;;;;8.03;1.30;;;19.80;98.70;;;;;;4971474;28;20447;-64
2023/10/04 10:18:48;;;;;;;9.80;2.10;;;19.40;99.20;;;;;;4971908;28;20454;-65
2023/10/04 10:21:16;;;;;;;8.67;1.83;;;19.10;99.90;;;;;;4970933;28;20807;-64
2023/10/04 10:24:03;;;;;;;8.50;1.50;;;18.90;99.90;;;;;;4971169;28;20574;-65
2023/10/04 10:26:33;;;;;;;9.77;1.73;;;18.40;99.90;;;;;;4970994;28;20547;-63
2023/10/04 10:29:03;;;;;;;8.10;1.43;;;18.20;99.90;;;;;;4971126;28;20447;-67
2023/10/04 10:31:32;;;;;;;8.60;1.60;;;18.10;99.90;;;;;;4970847;28;20472;-65
2023/10/04 10:34:04;;;;;;;10.10;1.60;;;18.70;99.90;;;;;;4971225;28;20471;-65
2023/10/04 10:36:33;;;;;;;9.00;1.43;;;19.60;99.90;;;;;;4970830;28;20455;-65
2023/10/04 10:39:19;;;;;;;9.23;1.50;;;20.20;99.50;;;;;;4970962;28;20452;-65
2023/10/04 10:41:57;;;;;;;7.70;1.10;;;19.60;98.00;;;;;;4970658;28;20467;-65
2023/10/04 10:44:30;;;;;;;8.13;1.33;;;19.60;98.90;;;;;;4970824;28;20487;-65
2023/10/04 10:47:06;;;;;;;11.33;1.90;;;20.10;97.80;;;;;;4970833;28;21002;-66
2023/10/04 10:49:42;;;;;;;6.83;1.20;;;20.70;96.80;;;;;;4970582;28;20443;-65
2023/10/04 10:52:20;;;;;;;10.67;1.30;;;20.90;93.90;;;;;;4970420;28;20463;-64
2023/10/04 10:54:49;;;;;;;8.43;1.57;;;20.20;94.60;;;;;;4970805;28;20439;-66
2023/10/04 10:57:20;;;;;;;8.23;1.23;;;20.00;93.40;;;;;;4970619;28;20448;-65
2023/10/04 10:59:50;;;;;;;7.13;1.20;;;19.70;93.70;;;;;;4970380;28;20455;-65
2023/10/04 11:02:18;;;;;;;7.00;1.40;;;19.30;95.30;;;;;;4970021;28;20467;-66
2023/10/04 11:04:46;;;;;;;13.23;2.23;;;19.70;95.10;;;;;;4970690;28;20523;-68
2023/10/04 11:07:17;;;;;;;9.10;1.40;;;20.20;93.60;;;;;;4970807;28;20447;-68
2023/10/04 11:09:50;;;;;;;6.93;1.70;;;20.60;92.40;;;;;;4970618;28;20831;-66
2023/10/04 11:12:21;;;;;;;7.80;1.10;;;21.30;91.00;;;;;;4970153;28;20550;-65
2023/10/04 11:14:49;;;;;;;8.30;1.43;;;21.60;88.60;;;;;;4970507;28;20471;-65
2023/10/04 11:17:18;;;;;;;7.87;1.20;;;22.20;89.70;;;;;;4970553;28;20458;-65
2023/10/04 11:19:46;;;;;;;7.70;1.30;;;22.00;84.20;;;;;;4970224;28;20534;-66
2023/10/04 11:22:15;;;;;;;10.03;1.70;;;21.30;84.50;;;;;;4969841;28;20483;-64
2023/10/04 11:24:46;;;;;;;7.10;1.20;;;20.40;87.50;;;;;;4970367;28;20487;-66
2023/10/04 11:27:22;;;;;;;9.23;1.70;;;19.60;90.80;;;;;;4970182;28;20455;-65
2023/10/04 11:29:52;;;;;;;7.43;1.57;;;19.00;92.30;;;;;;4962933;28;20994;-66
2023/10/04 11:32:21;;;;;;;8.87;1.67;;;18.80;93.30;;;;;;4970013;28;20715;-67
2023/10/04 11:34:50;;;;;;;6.83;1.20;;;18.80;92.10;;;;;;4970373;28;20804;-65
2023/10/04 11:37:18;;;;;;;8.27;1.40;;;19.20;92.50;;;;;;4970054;28;20514;-67
2023/10/04 11:39:46;;;;;;;8.67;1.43;;;20.10;91.50;;;;;;4969755;28;20506;-64
2023/10/04 11:42:21;;;;;;;7.80;1.27;;;20.30;89.90;;;;;;4969151;28;20506;-66
2023/10/04 11:44:50;;;;;;;7.60;1.70;;;21.00;87.80;;;;;;4972442;28;20482;-67
2023/10/04 11:47:27;;;;;;;8.77;2.07;;;21.70;84.40;;;;;;4972441;28;20868;-65
2023/10/04 11:49:58;;;;;;;10.53;1.80;;;21.10;81.50;;;;;;4971481;28;20482;-66
2023/10/04 11:52:31;;;;;;;8.63;2.13;;;20.80;87.00;;;;;;4969111;28;20510;-66
2023/10/04 11:55:00;;;;;;;7.93;1.27;;;21.40;80.80;;;;;;4967739;28;20475;-68
2023/10/04 11:57:37;;;;;;;8.57;1.20;;;22.00;76.50;;;;;;4969732;28;20551;-65
2023/10/04 12:00:17;;;;;;;6.93;1.30;;;22.30;74.10;;;;;;4969654;28;20455;-66
2023/10/04 12:02:45;;;;;;;7.07;1.30;;;21.90;78.30;;;;;;4968530;28;20482;-66
2023/10/04 12:05:14;;;;;;;7.60;1.50;;;22.50;74.10;;;;;;4969889;28;20586;-68
2023/10/04 12:07:42;;;;;;;7.97;1.50;;;23.00;69.30;;;;;;4970010;28;20452;-66
2023/10/04 12:10:13;;;;;;;10.17;1.17;;;23.20;69.30;;;;;;4969707;28;20946;-65
2023/10/04 12:12:43;;;;;;;8.60;1.50;;;23.40;65.30;;;;;;4969662;28;20507;-66
2023/10/04 12:15:11;;;;;;;7.13;1.10;;;23.90;62.70;;;;;;4970101;28;20483;-65
2023/10/04 12:17:40;;;;;;;9.80;2.13;;;24.10;63.50;;;;;;4969806;28;21005;-66
2023/10/04 12:20:11;;;;;;;9.13;1.50;;;24.90;61.10;;;;;;4972580;28;20451;-65
2023/10/04 12:22:40;;;;;;;8.57;1.70;;;24.50;61.90;;;;;;4975983;28;20547;-66
2023/10/04 12:25:08;;;;;;;7.00;1.50;;;23.20;62.80;;;;;;4969858;28;20967;-65
2023/10/04 12:27:36;;;;;;;8.27;2.10;;;21.60;69.80;;;;;;4969642;28;20935;-64
2023/10/04 12:30:10;;;;;;;8.57;1.80;;;21.30;71.10;;;;;;4964461;28;20456;-66
2023/10/04 12:32:38;;;;;;;6.80;0.90;;;22.00;67.30;;;;;;4967661;28;20478;-66
2023/10/04 12:35:07;;;;;;;6.27;1.13;;;22.20;64.90;;;;;;4972003;28;20585;-66
2023/10/04 12:37:35;;;;;;;6.93;1.30;;;21.50;61.20;;;;;;4973401;28;20950;-65
2023/10/04 12:40:07;;;;;;;10.50;1.30;;;21.70;59.30;;;;;;4973159;28;20954;-65
2023/10/04 12:42:35;;;;;;;7.13;1.40;;;22.30;61.50;;;;;;4968969;28;20471;-66
2023/10/04 12:45:05;;;;;;;7.10;1.30;;;23.10;59.10;;;;;;4969771;28;20486;-66
2023/10/04 12:47:34;;;;;;;8.10;1.30;;;24.10;59.30;;;;;;4972104;28;20483;-66
2023/10/04 12:50:04;;;;;;;7.53;1.13;;;24.50;57.50;;;;;;4966861;28;20440;-65
2023/10/04 12:52:32;;;;;;;7.03;1.30;;;24.30;57.40;;;;;;4972500;28;20472;-64
2023/10/04 12:55:01;;;;;;;6.37;0.90;;;24.60;57.70;;;;;;4972585;28;20440;-67
2023/10/04 12:57:29;;;;;;;7.00;1.17;;;25.20;57.40;;;;;;4972648;28;20447;-66
2023/10/04 12:59:56;;;;;;;8.90;1.60;;;24.80;55.50;;;;;;4972997;28;20802;-65
2023/10/04 13:02:25;;;;;;;8.80;1.30;;;24.60;56.10;;;;;;4970232;28;21257;-66